sensor_id;sensor_type;location;lat;lon;timestamp;temperature;humidity
40589;DHT22;26297;49.450;6.640;2023-09-19T00:01:52;19.90;99.90
40589;DHT22;26297;49.450;6.640;2023-09-19T00:04:55;19.80;99.90
40589;DHT22;26297;49.450;6.640;2023-09-19T00:07:58;19.80;99.90
40589;DHT22;26297;49.450;6.640;2023-09-19T00:11:02;19.80;99.90
40589;DHT22;26297;49.450;6.640;2023-09-19T00:14:09;19.80;99.90
40589;DHT22;26297;49.450;6.640;2023-09-19T00:17:12;19.80;99.90
40589;DHT22;26297;49.450;6.640;2023-09-19T00:20:15;19.80;99.90
40589;DHT22;26297;49.450;6.640;2023-09-19T00:23:20;19.80;99.90
40589;DHT22;26297;49.450;6.640;2023-09-19T00:26:23;19.70;99.90
40589;DHT22;26297;49.450;6.640;2023-09-19T00:29:26;19.70;99.90
40589;DHT22;26297;49.450;6.640;2023-09-19T00:32:32;19.70;99.90
40589;DHT22;26297;49.450;6.640;2023-09-19T00:35:35;19.70;99.90
40589;DHT22;26297;49.450;6.640;2023-09-19T00:38:39;19.70;99.90
40589;DHT22;26297;49.450;6.640;2023-09-19T00:41:43;19.70;99.90
40589;DHT22;26297;49.450;6.640;2023-09-19T00:44:47;19.60;99.90
40589;DHT22;26297;49.450;6.640;2023-09-19T00:47:54;19.60;99.90
40589;DHT22;26297;49.450;6.640;2023-09-19T00:50:58;19.70;99.90
40589;DHT22;26297;49.450;6.640;2023-09-19T00:54:02;19.70;99.90
40589;DHT22;26297;49.450;6.640;2023-09-19T00:57:05;19.70;99.90
40589;DHT22;26297;49.450;6.640;2023-09-19T01:00:08;19.60;99.90
40589;DHT22;26297;49.450;6.640;2023-09-19T01:03:15;19.60;99.90
40589;DHT22;26297;49.450;6.640;2023-09-19T01:06:17;19.60;99.90
40589;DHT22;26297;49.450;6.640;2023-09-19T01:09:21;19.60;99.90
40589;DHT22;26297;49.450;6.640;2023-09-19T01:12:41;19.50;99.90
40589;DHT22;26297;49.450;6.640;2023-09-19T01:15:50;19.50;99.90
40589;DHT22;26297;49.450;6.640;2023-09-19T01:22:11;19.50;99.90
40589;DHT22;26297;49.450;6.640;2023-09-19T01:31:26;19.40;99.90
40589;DHT22;26297;49.450;6.640;2023-09-19T01:37:53;19.40;99.90
40589;DHT22;26297;49.450;6.640;2023-09-19T01:41:07;19.40;99.90
40589;DHT22;26297;49.450;6.640;2023-09-19T01:44:15;19.30;99.90
40589;DHT22;26297;49.450;6.640;2023-09-19T01:47:33;19.30;99.90
40589;DHT22;26297;49.450;6.640;2023-09-19T01:50:38;19.30;99.90
40589;DHT22;26297;49.450;6.640;2023-09-19T01:53:46;19.30;99.90
40589;DHT22;26297;49.450;6.640;2023-09-19T02:00:14;19.20;99.90
40589;DHT22;26297;49.450;6.640;2023-09-19T02:03:20;19.20;99.90
40589;DHT22;26297;49.450;6.640;2023-09-19T02:06:25;19.20;99.90
40589;DHT22;26297;49.450;6.640;2023-09-19T02:12:45;19.10;99.90
40589;DHT22;26297;49.450;6.640;2023-09-19T02:15:49;19.20;99.90
40589;DHT22;26297;49.450;6.640;2023-09-19T02:18:52;19.10;99.90
40589;DHT22;26297;49.450;6.640;2023-09-19T02:21:55;19.10;99.90
40589;DHT22;26297;49.450;6.640;2023-09-19T02:24:58;19.10;99.90
40589;DHT22;26297;49.450;6.640;2023-09-19T02:28:03;19.10;99.90
40589;DHT22;26297;49.450;6.640;2023-09-19T02:31:07;19.10;99.90
40589;DHT22;26297;49.450;6.640;2023-09-19T02:34:10;19.10;99.90
40589;DHT22;26297;49.450;6.640;2023-09-19T02:37:14;19.20;99.90
40589;DHT22;26297;49.450;6.640;2023-09-19T02:40:22;19.10;99.90
40589;DHT22;26297;49.450;6.640;2023-09-19T02:43:28;19.10;99.90
40589;DHT22;26297;49.450;6.640;2023-09-19T02:46:31;19.10;99.90
40589;DHT22;26297;49.450;6.640;2023-09-19T02:49:34;19.10;99.90
40589;DHT22;26297;49.450;6.640;2023-09-19T02:52:37;19.00;99.90
40589;DHT22;26297;49.450;6.640;2023-09-19T02:55:40;19.10;99.90
40589;DHT22;26297;49.450;6.640;2023-09-19T02:58:43;19.00;99.90
40589;DHT22;26297;49.450;6.640;2023-09-19T03:01:47;19.00;99.90
40589;DHT22;26297;49.450;6.640;2023-09-19T03:04:51;18.90;99.90
40589;DHT22;26297;49.450;6.640;2023-09-19T03:07:54;18.90;99.90
40589;DHT22;26297;49.450;6.640;2023-09-19T03:10:59;18.90;99.90
40589;DHT22;26297;49.450;6.640;2023-09-19T03:14:09;19.00;99.90
40589;DHT22;26297;49.450;6.640;2023-09-19T03:17:18;18.90;99.90
40589;DHT22;26297;49.450;6.640;2023-09-19T03:20:23;19.00;99.90
40589;DHT22;26297;49.450;6.640;2023-09-19T03:23:27;19.00;99.90
40589;DHT22;26297;49.450;6.640;2023-09-19T03:26:30;19.00;99.90
40589;DHT22;26297;49.450;6.640;2023-09-19T03:29:33;19.00;99.90
40589;DHT22;26297;49.450;6.640;2023-09-19T03:32:36;19.00;99.90
40589;DHT22;26297;49.450;6.640;2023-09-19T03:35:42;19.00;99.90
40589;DHT22;26297;49.450;6.640;2023-09-19T03:38:51;18.90;99.90
40589;DHT22;26297;49.450;6.640;2023-09-19T03:41:54;18.90;99.90
40589;DHT22;26297;49.450;6.640;2023-09-19T03:45:08;18.90;99.90
40589;DHT22;26297;49.450;6.640;2023-09-19T03:48:15;18.90;99.90
40589;DHT22;26297;49.450;6.640;2023-09-19T03:51:18;19.00;99.90
40589;DHT22;26297;49.450;6.640;2023-09-19T03:54:21;19.00;99.90
40589;DHT22;26297;49.450;6.640;2023-09-19T03:57:24;18.90;99.90
40589;DHT22;26297;49.450;6.640;2023-09-19T04:00:27;18.90;99.90
40589;DHT22;26297;49.450;6.640;2023-09-19T04:03:32;18.90;99.90
40589;DHT22;26297;49.450;6.640;2023-09-19T04:06:49;18.90;99.90
40589;DHT22;26297;49.450;6.640;2023-09-19T04:09:52;18.90;99.90
40589;DHT22;26297;49.450;6.640;2023-09-19T04:12:58;18.90;99.90
40589;DHT22;26297;49.450;6.640;2023-09-19T04:16:02;18.90;99.90
40589;DHT22;26297;49.450;6.640;2023-09-19T04:19:07;18.90;99.90
40589;DHT22;26297;49.450;6.640;2023-09-19T04:22:18;18.90;99.90
40589;DHT22;26297;49.450;6.640;2023-09-19T04:25:21;18.90;99.90
40589;DHT22;26297;49.450;6.640;2023-09-19T04:28:25;18.90;99.90
40589;DHT22;26297;49.450;6.640;2023-09-19T04:31:28;18.90;99.90
40589;DHT22;26297;49.450;6.640;2023-09-19T04:34:32;18.90;99.90
40589;DHT22;26297;49.450;6.640;2023-09-19T04:37:38;18.80;99.90
40589;DHT22;26297;49.450;6.640;2023-09-19T04:40:48;18.80;99.90
40589;DHT22;26297;49.450;6.640;2023-09-19T04:43:51;18.80;99.90
40589;DHT22;26297;49.450;6.640;2023-09-19T04:46:55;18.80;99.90
40589;DHT22;26297;49.450;6.640;2023-09-19T04:50:01;18.80;99.90
40589;DHT22;26297;49.450;6.640;2023-09-19T04:53:04;18.80;99.90
40589;DHT22;26297;49.450;6.640;2023-09-19T04:56:08;18.80;99.90
40589;DHT22;26297;49.450;6.640;2023-09-19T04:59:11;18.70;99.90
40589;DHT22;26297;49.450;6.640;2023-09-19T05:02:14;18.70;99.90
40589;DHT22;26297;49.450;6.640;2023-09-19T05:05:25;18.70;99.90
40589;DHT22;26297;49.450;6.640;2023-09-19T05:08:28;18.70;99.90
40589;DHT22;26297;49.450;6.640;2023-09-19T05:11:34;18.70;99.90
40589;DHT22;26297;49.450;6.640;2023-09-19T05:23:46;18.80;99.90
40589;DHT22;26297;49.450;6.640;2023-09-19T05:26:55;18.80;99.90
40589;DHT22;26297;49.450;6.640;2023-09-19T05:30:04;18.80;99.90
40589;DHT22;26297;49.450;6.640;2023-09-19T05:33:08;18.80;99.90
40589;DHT22;26297;49.450;6.640;2023-09-19T05:36:14;18.80;99.90
40589;DHT22;26297;49.450;6.640;2023-09-19T05:39:19;18.80;99.90
40589;DHT22;26297;49.450;6.640;2023-09-19T05:42:25;18.90;99.90
40589;DHT22;26297;49.450;6.640;2023-09-19T05:45:28;18.90;99.90
40589;DHT22;26297;49.450;6.640;2023-09-19T05:48:34;18.90;99.90
40589;DHT22;26297;49.450;6.640;2023-09-19T05:51:40;18.90;99.90
40589;DHT22;26297;49.450;6.640;2023-09-19T05:54:49;18.90;99.90
40589;DHT22;26297;49.450;6.640;2023-09-19T05:57:53;18.90;99.90
40589;DHT22;26297;49.450;6.640;2023-09-19T06:00:56;18.90;99.90
40589;DHT22;26297;49.450;6.640;2023-09-19T06:04:00;18.90;99.90
40589;DHT22;26297;49.450;6.640;2023-09-19T06:07:03;18.80;99.90
40589;DHT22;26297;49.450;6.640;2023-09-19T06:10:13;18.90;99.90
40589;DHT22;26297;49.450;6.640;2023-09-19T06:13:17;18.80;99.90
40589;DHT22;26297;49.450;6.640;2023-09-19T06:16:21;18.90;99.90
40589;DHT22;26297;49.450;6.640;2023-09-19T06:19:24;18.90;99.90
40589;DHT22;26297;49.450;6.640;2023-09-19T06:22:30;18.80;99.90
40589;DHT22;26297;49.450;6.640;2023-09-19T06:25:33;18.80;99.90
40589;DHT22;26297;49.450;6.640;2023-09-19T06:28:36;18.80;99.90
40589;DHT22;26297;49.450;6.640;2023-09-19T06:31:39;18.70;99.90
40589;DHT22;26297;49.450;6.640;2023-09-19T06:34:42;18.70;99.90
40589;DHT22;26297;49.450;6.640;2023-09-19T07:01:49;18.60;99.90
40589;DHT22;26297;49.450;6.640;2023-09-19T07:04:54;18.60;99.90
40589;DHT22;26297;49.450;6.640;2023-09-19T07:07:59;18.50;99.90
40589;DHT22;26297;49.450;6.640;2023-09-19T07:11:10;18.50;99.90
40589;DHT22;26297;49.450;6.640;2023-09-19T07:14:18;18.60;99.90
40589;DHT22;26297;49.450;6.640;2023-09-19T07:21:24;18.70;99.90
40589;DHT22;26297;49.450;6.640;2023-09-19T07:24:30;18.60;99.90
40589;DHT22;26297;49.450;6.640;2023-09-19T07:41:17;18.70;99.90
40589;DHT22;26297;49.450;6.640;2023-09-19T07:44:20;18.60;99.90
40589;DHT22;26297;49.450;6.640;2023-09-19T07:47:33;18.50;99.90
40589;DHT22;26297;49.450;6.640;2023-09-19T07:50:37;18.50;99.90
40589;DHT22;26297;49.450;6.640;2023-09-19T07:53:40;18.60;99.90
40589;DHT22;26297;49.450;6.640;2023-09-19T07:56:50;18.60;99.90
40589;DHT22;26297;49.450;6.640;2023-09-19T08:00:25;18.50;99.90
40589;DHT22;26297;49.450;6.640;2023-09-19T08:03:28;18.50;99.90
40589;DHT22;26297;49.450;6.640;2023-09-19T08:06:47;18.40;99.90
40589;DHT22;26297;49.450;6.640;2023-09-19T08:13:55;18.10;99.90
40589;DHT22;26297;49.450;6.640;2023-09-19T09:18:25;18.50;99.90
40589;DHT22;26297;49.450;6.640;2023-09-19T09:21:29;18.40;99.90
40589;DHT22;26297;49.450;6.640;2023-09-19T09:24:32;18.40;99.90
40589;DHT22;26297;49.450;6.640;2023-09-19T09:27:40;18.40;99.90
40589;DHT22;26297;49.450;6.640;2023-09-19T09:30:43;18.40;99.90
40589;DHT22;26297;49.450;6.640;2023-09-19T09:33:52;18.40;99.90
40589;DHT22;26297;49.450;6.640;2023-09-19T09:36:56;18.30;99.90
40589;DHT22;26297;49.450;6.640;2023-09-19T09:40:01;18.30;99.90
40589;DHT22;26297;49.450;6.640;2023-09-19T09:43:34;18.40;99.90
40589;DHT22;26297;49.450;6.640;2023-09-19T09:46:44;18.40;99.90
40589;DHT22;26297;49.450;6.640;2023-09-19T09:49:57;18.40;99.90
40589;DHT22;26297;49.450;6.640;2023-09-19T09:53:28;18.50;99.90
40589;DHT22;26297;49.450;6.640;2023-09-19T09:56:34;18.50;99.90
40589;DHT22;26297;49.450;6.640;2023-09-19T09:59:58;18.50;99.90
40589;DHT22;26297;49.450;6.640;2023-09-19T10:06:50;18.50;99.90
40589;DHT22;26297;49.450;6.640;2023-09-19T10:09:56;18.50;99.90
40589;DHT22;26297;49.450;6.640;2023-09-19T10:13:11;18.60;99.90
40589;DHT22;26297;49.450;6.640;2023-09-19T10:16:22;18.60;99.90
40589;DHT22;26297;49.450;6.640;2023-09-19T10:19:31;18.60;99.90
40589;DHT22;26297;49.450;6.640;2023-09-19T10:22:36;18.60;99.90
40589;DHT22;26297;49.450;6.640;2023-09-19T10:25:41;18.70;99.90
40589;DHT22;26297;49.450;6.640;2023-09-19T10:28:46;18.70;99.90
40589;DHT22;26297;49.450;6.640;2023-09-19T10:31:50;18.80;99.90
40589;DHT22;26297;49.450;6.640;2023-09-19T10:34:56;18.90;99.90
40589;DHT22;26297;49.450;6.640;2023-09-19T10:38:00;18.90;99.90
40589;DHT22;26297;49.450;6.640;2023-09-19T10:41:03;18.90;99.90
40589;DHT22;26297;49.450;6.640;2023-09-19T10:44:07;18.90;99.90
40589;DHT22;26297;49.450;6.640;2023-09-19T10:47:12;19.00;99.90
40589;DHT22;26297;49.450;6.640;2023-09-19T10:50:20;19.00;99.90
40589;DHT22;26297;49.450;6.640;2023-09-19T10:53:45;19.00;99.90
40589;DHT22;26297;49.450;6.640;2023-09-19T12:28:26;19.40;99.90
40589;DHT22;26297;49.450;6.640;2023-09-19T12:31:29;19.50;99.90
40589;DHT22;26297;49.450;6.640;2023-09-19T12:34:33;19.50;99.90
40589;DHT22;26297;49.450;6.640;2023-09-19T12:37:43;19.50;99.90
40589;DHT22;26297;49.450;6.640;2023-09-19T12:40:51;19.60;99.90
40589;DHT22;26297;49.450;6.640;2023-09-19T12:43:54;19.60;99.90
40589;DHT22;26297;49.450;6.640;2023-09-19T12:46:57;19.70;99.90
40589;DHT22;26297;49.450;6.640;2023-09-19T12:53:38;19.70;99.90
40589;DHT22;26297;49.450;6.640;2023-09-19T12:56:53;19.80;99.90
40589;DHT22;26297;49.450;6.640;2023-09-19T13:00:03;19.80;99.90
40589;DHT22;26297;49.450;6.640;2023-09-19T13:03:40;19.80;99.90
40589;DHT22;26297;49.450;6.640;2023-09-19T13:06:47;19.80;99.90
40589;DHT22;26297;49.450;6.640;2023-09-19T13:43:16;19.90;99.90
40589;DHT22;26297;49.450;6.640;2023-09-19T13:46:19;19.90;99.90
40589;DHT22;26297;49.450;6.640;2023-09-19T15:33:06;20.00;99.90
40589;DHT22;26297;49.450;6.640;2023-09-19T15:36:10;20.00;99.90
40589;DHT22;26297;49.450;6.640;2023-09-19T16:20:11;19.90;99.90
40589;DHT22;26297;49.450;6.640;2023-09-19T16:23:21;19.90;99.90
40589;DHT22;26297;49.450;6.640;2023-09-19T16:26:24;19.90;99.90
40589;DHT22;26297;49.450;6.640;2023-09-19T16:29:27;19.90;99.90
40589;DHT22;26297;49.450;6.640;2023-09-19T16:32:38;19.90;99.90
40589;DHT22;26297;49.450;6.640;2023-09-19T16:35:41;19.90;99.90
40589;DHT22;26297;49.450;6.640;2023-09-19T16:38:46;19.90;99.90
40589;DHT22;26297;49.450;6.640;2023-09-19T16:41:53;19.90;99.90
40589;DHT22;26297;49.450;6.640;2023-09-19T16:44:56;19.80;99.90
40589;DHT22;26297;49.450;6.640;2023-09-19T16:47:59;19.80;99.90
40589;DHT22;26297;49.450;6.640;2023-09-19T16:51:12;19.80;99.90
40589;DHT22;26297;49.450;6.640;2023-09-19T16:54:16;19.80;99.90
40589;DHT22;26297;49.450;6.640;2023-09-19T16:57:19;19.80;99.90
40589;DHT22;26297;49.450;6.640;2023-09-19T17:00:25;19.90;99.90
40589;DHT22;26297;49.450;6.640;2023-09-19T17:03:28;19.80;99.90
40589;DHT22;26297;49.450;6.640;2023-09-19T17:06:48;19.80;99.90
40589;DHT22;26297;49.450;6.640;2023-09-19T17:13:24;19.80;99.90
40589;DHT22;26297;49.450;6.640;2023-09-19T17:16:27;19.80;99.90
40589;DHT22;26297;49.450;6.640;2023-09-19T17:19:32;19.80;99.90
40589;DHT22;26297;49.450;6.640;2023-09-19T17:22:35;19.80;99.90
40589;DHT22;26297;49.450;6.640;2023-09-19T17:25:39;19.70;99.90
40589;DHT22;26297;49.450;6.640;2023-09-19T17:28:42;19.70;99.90
40589;DHT22;26297;49.450;6.640;2023-09-19T17:31:45;19.70;99.90
40589;DHT22;26297;49.450;6.640;2023-09-19T17:34:55;19.70;99.90
40589;DHT22;26297;49.450;6.640;2023-09-19T17:37:59;19.70;99.90
40589;DHT22;26297;49.450;6.640;2023-09-19T17:53:58;19.60;99.90
40589;DHT22;26297;49.450;6.640;2023-09-19T17:57:13;19.60;99.90
40589;DHT22;26297;49.450;6.640;2023-09-19T18:00:23;19.60;99.90
40589;DHT22;26297;49.450;6.640;2023-09-19T18:03:35;19.50;99.90
40589;DHT22;26297;49.450;6.640;2023-09-19T18:06:41;19.50;99.90
40589;DHT22;26297;49.450;6.640;2023-09-19T18:09:45;19.50;99.90
40589;DHT22;26297;49.450;6.640;2023-09-19T18:13:05;19.40;99.90
40589;DHT22;26297;49.450;6.640;2023-09-19T18:16:18;19.50;99.90
40589;DHT22;26297;49.450;6.640;2023-09-19T18:19:32;19.40;99.90
40589;DHT22;26297;49.450;6.640;2023-09-19T18:22:36;19.40;99.90
40589;DHT22;26297;49.450;6.640;2023-09-19T18:25:39;19.40;99.90
40589;DHT22;26297;49.450;6.640;2023-09-19T18:28:48;19.40;99.90
40589;DHT22;26297;49.450;6.640;2023-09-19T18:32:08;19.40;99.90
40589;DHT22;26297;49.450;6.640;2023-09-19T18:35:19;19.30;99.90
40589;DHT22;26297;49.450;6.640;2023-09-19T18:38:27;19.40;99.90
40589;DHT22;26297;49.450;6.640;2023-09-19T18:41:41;19.30;99.90
40589;DHT22;26297;49.450;6.640;2023-09-19T18:44:52;19.40;99.90
40589;DHT22;26297;49.450;6.640;2023-09-19T18:47:58;19.40;99.90
40589;DHT22;26297;49.450;6.640;2023-09-19T18:51:12;19.30;99.90
40589;DHT22;26297;49.450;6.640;2023-09-19T18:54:20;19.40;99.90
40589;DHT22;26297;49.450;6.640;2023-09-19T18:57:29;19.40;99.90
40589;DHT22;26297;49.450;6.640;2023-09-19T19:00:39;19.40;99.90
40589;DHT22;26297;49.450;6.640;2023-09-19T19:03:43;19.50;99.90
40589;DHT22;26297;49.450;6.640;2023-09-19T19:06:51;19.50;99.90
40589;DHT22;26297;49.450;6.640;2023-09-19T19:09:56;19.50;99.90
40589;DHT22;26297;49.450;6.640;2023-09-19T19:13:02;19.50;99.90
40589;DHT22;26297;49.450;6.640;2023-09-19T19:16:13;19.50;99.90
40589;DHT22;26297;49.450;6.640;2023-09-19T19:19:19;19.50;99.90
40589;DHT22;26297;49.450;6.640;2023-09-19T19:22:27;19.50;99.90
40589;DHT22;26297;49.450;6.640;2023-09-19T19:25:45;19.40;99.90
40589;DHT22;26297;49.450;6.640;2023-09-19T19:29:08;19.40;99.90
40589;DHT22;26297;49.450;6.640;2023-09-19T19:32:41;19.30;99.90
40589;DHT22;26297;49.450;6.640;2023-09-19T19:35:51;19.40;99.90
40589;DHT22;26297;49.450;6.640;2023-09-19T19:38:58;19.40;99.90
40589;DHT22;26297;49.450;6.640;2023-09-19T19:42:03;19.50;99.90
40589;DHT22;26297;49.450;6.640;2023-09-19T19:45:15;19.50;99.90
40589;DHT22;26297;49.450;6.640;2023-09-19T20:15:04;19.60;99.90
40589;DHT22;26297;49.450;6.640;2023-09-19T20:18:07;19.60;99.90
40589;DHT22;26297;49.450;6.640;2023-09-19T20:21:16;19.60;99.90
40589;DHT22;26297;49.450;6.640;2023-09-19T20:24:19;19.60;99.90
40589;DHT22;26297;49.450;6.640;2023-09-19T20:27:25;19.50;99.90
40589;DHT22;26297;49.450;6.640;2023-09-19T20:30:28;19.50;99.90
40589;DHT22;26297;49.450;6.640;2023-09-19T20:33:31;19.40;99.90
40589;DHT22;26297;49.450;6.640;2023-09-19T20:36:34;19.30;99.90
40589;DHT22;26297;49.450;6.640;2023-09-19T20:39:49;19.30;99.90
40589;DHT22;26297;49.450;6.640;2023-09-19T20:42:54;19.30;99.90
40589;DHT22;26297;49.450;6.640;2023-09-19T20:46:01;19.40;99.90
40589;DHT22;26297;49.450;6.640;2023-09-19T20:49:21;19.30;99.90
40589;DHT22;26297;49.450;6.640;2023-09-19T22:37:16;18.90;99.90
40589;DHT22;26297;49.450;6.640;2023-09-19T22:40:20;18.90;99.90
40589;DHT22;26297;49.450;6.640;2023-09-19T22:43:32;18.90;99.90
40589;DHT22;26297;49.450;6.640;2023-09-19T22:46:42;18.90;99.90
40589;DHT22;26297;49.450;6.640;2023-09-19T22:49:46;18.90;99.90
40589;DHT22;26297;49.450;6.640;2023-09-19T22:52:55;18.90;99.90
40589;DHT22;26297;49.450;6.640;2023-09-19T22:56:01;18.90;99.90
40589;DHT22;26297;49.450;6.640;2023-09-19T22:59:12;18.90;99.90
40589;DHT22;26297;49.450;6.640;2023-09-19T23:02:17;18.90;99.90
40589;DHT22;26297;49.450;6.640;2023-09-19T23:05:21;18.90;99.90
40589;DHT22;26297;49.450;6.640;2023-09-19T23:08:35;18.90;99.90
40589;DHT22;26297;49.450;6.640;2023-09-19T23:11:41;18.90;99.90
40589;DHT22;26297;49.450;6.640;2023-09-19T23:14:47;18.90;99.90
40589;DHT22;26297;49.450;6.640;2023-09-19T23:17:50;18.80;99.90
40589;DHT22;26297;49.450;6.640;2023-09-19T23:20:54;18.90;99.90
40589;DHT22;26297;49.450;6.640;2023-09-19T23:24:17;18.90;99.90
40589;DHT22;26297;49.450;6.640;2023-09-19T23:30:47;18.80;99.90
40589;DHT22;26297;49.450;6.640;2023-09-19T23:33:56;18.80;99.90
40589;DHT22;26297;49.450;6.640;2023-09-19T23:37:00;18.90;99.90
40589;DHT22;26297;49.450;6.640;2023-09-19T23:40:28;18.80;99.90
40589;DHT22;26297;49.450;6.640;2023-09-19T23:43:33;18.80;99.90
40589;DHT22;26297;49.450;6.640;2023-09-19T23:46:45;18.80;99.90
40589;DHT22;26297;49.450;6.640;2023-09-19T23:50:03;18.90;99.90
40589;DHT22;26297;49.450;6.640;2023-09-19T23:53:15;18.80;99.90
40589;DHT22;26297;49.450;6.640;2023-09-19T23:56:30;18.80;99.90
40589;DHT22;26297;49.450;6.640;2023-09-19T23:59:38;18.80;99.90
